CheckWX is a tool to help pilots better visualize weather data.  It is not intended as a substitute for an official pre-flight weather briefing.

07:59:19 UTC

KOQT METAR
Oak Ridge Airport
Tennessee, USA
Current

1 hour ago

KOQT 200653Z AUTO 00000KT 10SM CLR 24/20 A3010 RMK AO2 SLP172 T02390200
Observed
Aug-20 @ 06:53 UTC
Visibility
10 SM
Flight Rules
VFR
Cloud Levels
  • Clear skies
Temperature
24°C / 75°F
Dewpoint
20°C / 68°F
Humidity
78%
Altimeter
30.1" Hg
Pressure
1019.32 hPa
Previous

2 hours ago

KOQT 200553Z AUTO 00000KT 10SM CLR 25/20 A3010 RMK AO2 SLP173 T02500200 10311 20250 58004
Observed
Aug-20 @ 05:53 UTC
Visibility
10 SM
Flight Rules
VFR
Cloud Levels
  • Clear skies
Temperature
25°C / 77°F
Dewpoint
20°C / 68°F
Humidity
74%
Altimeter
30.1" Hg
Pressure
1019.32 hPa
Previous

3 hours ago

KOQT 200453Z AUTO 22003KT 10SM CLR 26/20 A3011 RMK AO2 SLP177 T02560200 403610222
Observed
Aug-20 @ 04:53 UTC
Wind
  • 220° at 3 KTS
Visibility
10 SM
Flight Rules
VFR
Cloud Levels
  • Clear skies
Temperature
26°C / 79°F
Dewpoint
20°C / 68°F
Humidity
70%
Altimeter
30.11" Hg
Pressure
1019.62 hPa